sensor_id;sensor_type;location;lat;lon;timestamp;P1;durP1;ratioP1;P2;durP2;ratioP2
17382;SDS011;8809;51.892;8.384;2022-11-22T00:01:59;7.63;;;5.28;;
17382;SDS011;8809;51.892;8.384;2022-11-22T00:04:26;7.85;;;5.78;;
17382;SDS011;8809;51.892;8.384;2022-11-22T00:06:54;9.48;;;6.68;;
17382;SDS011;8809;51.892;8.384;2022-11-22T00:09:21;8.30;;;6.43;;
17382;SDS011;8809;51.892;8.384;2022-11-22T00:11:49;9.25;;;6.05;;
17382;SDS011;8809;51.892;8.384;2022-11-22T00:14:16;7.47;;;5.22;;
17382;SDS011;8809;51.892;8.384;2022-11-22T00:16:43;7.63;;;5.60;;
17382;SDS011;8809;51.892;8.384;2022-11-22T00:19:11;6.70;;;5.57;;
17382;SDS011;8809;51.892;8.384;2022-11-22T00:21:38;6.18;;;5.07;;
17382;SDS011;8809;51.892;8.384;2022-11-22T00:24:06;7.07;;;4.80;;
17382;SDS011;8809;51.892;8.384;2022-11-22T00:26:33;7.25;;;5.53;;
17382;SDS011;8809;51.892;8.384;2022-11-22T00:29:00;6.78;;;4.85;;
17382;SDS011;8809;51.892;8.384;2022-11-22T00:31:28;6.45;;;4.68;;
17382;SDS011;8809;51.892;8.384;2022-11-22T00:33:55;6.40;;;5.30;;
17382;SDS011;8809;51.892;8.384;2022-11-22T00:36:22;8.32;;;5.57;;
17382;SDS011;8809;51.892;8.384;2022-11-22T00:38:49;7.53;;;5.35;;
17382;SDS011;8809;51.892;8.384;2022-11-22T00:41:18;6.82;;;4.93;;
17382;SDS011;8809;51.892;8.384;2022-11-22T00:43:45;6.68;;;5.03;;
17382;SDS011;8809;51.892;8.384;2022-11-22T00:46:12;7.70;;;4.97;;
17382;SDS011;8809;51.892;8.384;2022-11-22T00:48:39;8.32;;;5.22;;
17382;SDS011;8809;51.892;8.384;2022-11-22T00:51:06;6.65;;;4.88;;
17382;SDS011;8809;51.892;8.384;2022-11-22T00:53:33;6.93;;;4.97;;
17382;SDS011;8809;51.892;8.384;2022-11-22T00:56:00;6.53;;;4.55;;
17382;SDS011;8809;51.892;8.384;2022-11-22T00:58:28;6.80;;;4.85;;
17382;SDS011;8809;51.892;8.384;2022-11-22T01:00:55;5.60;;;4.90;;
17382;SDS011;8809;51.892;8.384;2022-11-22T01:03:23;6.22;;;4.82;;
17382;SDS011;8809;51.892;8.384;2022-11-22T01:05:50;7.63;;;4.90;;
17382;SDS011;8809;51.892;8.384;2022-11-22T01:08:17;6.07;;;4.50;;
17382;SDS011;8809;51.892;8.384;2022-11-22T01:10:44;6.95;;;4.90;;
17382;SDS011;8809;51.892;8.384;2022-11-22T01:13:11;5.07;;;4.45;;
17382;SDS011;8809;51.892;8.384;2022-11-22T01:15:39;6.18;;;4.75;;
17382;SDS011;8809;51.892;8.384;2022-11-22T01:18:06;7.40;;;5.05;;
17382;SDS011;8809;51.892;8.384;2022-11-22T01:20:33;7.22;;;4.85;;
17382;SDS011;8809;51.892;8.384;2022-11-22T01:23:01;6.57;;;4.28;;
17382;SDS011;8809;51.892;8.384;2022-11-22T01:25:43;5.63;;;4.60;;
17382;SDS011;8809;51.892;8.384;2022-11-22T01:28:10;4.85;;;4.32;;
17382;SDS011;8809;51.892;8.384;2022-11-22T01:30:37;6.10;;;4.60;;
17382;SDS011;8809;51.892;8.384;2022-11-22T01:33:05;5.80;;;4.10;;
17382;SDS011;8809;51.892;8.384;2022-11-22T01:35:33;5.45;;;4.03;;
17382;SDS011;8809;51.892;8.384;2022-11-22T01:38:00;4.97;;;4.30;;
17382;SDS011;8809;51.892;8.384;2022-11-22T01:40:27;5.95;;;4.30;;
17382;SDS011;8809;51.892;8.384;2022-11-22T01:42:54;4.22;;;3.80;;
17382;SDS011;8809;51.892;8.384;2022-11-22T01:45:38;4.47;;;3.97;;
17382;SDS011;8809;51.892;8.384;2022-11-22T01:48:15;5.00;;;3.85;;
17382;SDS011;8809;51.892;8.384;2022-11-22T01:50:48;4.25;;;3.70;;
17382;SDS011;8809;51.892;8.384;2022-11-22T01:53:19;4.90;;;3.97;;
17382;SDS011;8809;51.892;8.384;2022-11-22T01:55:55;5.20;;;4.53;;
17382;SDS011;8809;51.892;8.384;2022-11-22T01:58:25;4.88;;;3.85;;
17382;SDS011;8809;51.892;8.384;2022-11-22T02:00:56;4.72;;;3.90;;
17382;SDS011;8809;51.892;8.384;2022-11-22T02:03:24;6.40;;;4.65;;
17382;SDS011;8809;51.892;8.384;2022-11-22T02:05:54;6.13;;;4.10;;
17382;SDS011;8809;51.892;8.384;2022-11-22T02:08:24;6.88;;;4.28;;
17382;SDS011;8809;51.892;8.384;2022-11-22T02:10:56;5.47;;;4.15;;
17382;SDS011;8809;51.892;8.384;2022-11-22T02:13:27;5.68;;;3.95;;
17382;SDS011;8809;51.892;8.384;2022-11-22T02:15:57;6.85;;;4.10;;
17382;SDS011;8809;51.892;8.384;2022-11-22T02:18:26;5.07;;;3.67;;
17382;SDS011;8809;51.892;8.384;2022-11-22T02:20:53;4.60;;;3.78;;
17382;SDS011;8809;51.892;8.384;2022-11-22T02:23:22;5.15;;;3.58;;
17382;SDS011;8809;51.892;8.384;2022-11-22T02:25:59;5.30;;;3.95;;
17382;SDS011;8809;51.892;8.384;2022-11-22T02:28:28;5.60;;;3.67;;
17382;SDS011;8809;51.892;8.384;2022-11-22T02:30:57;3.90;;;2.95;;
17382;SDS011;8809;51.892;8.384;2022-11-22T02:33:24;4.55;;;3.33;;
17382;SDS011;8809;51.892;8.384;2022-11-22T02:35:51;4.55;;;3.55;;
17382;SDS011;8809;51.892;8.384;2022-11-22T02:38:20;3.65;;;3.00;;
17382;SDS011;8809;51.892;8.384;2022-11-22T02:40:50;4.07;;;3.63;;
17382;SDS011;8809;51.892;8.384;2022-11-22T02:43:23;4.65;;;3.15;;
17382;SDS011;8809;51.892;8.384;2022-11-22T02:45:54;3.97;;;3.30;;
17382;SDS011;8809;51.892;8.384;2022-11-22T02:48:21;3.47;;;2.92;;
17382;SDS011;8809;51.892;8.384;2022-11-22T02:50:48;4.13;;;3.30;;
17382;SDS011;8809;51.892;8.384;2022-11-22T02:53:15;2.92;;;2.60;;
17382;SDS011;8809;51.892;8.384;2022-11-22T02:55:42;2.90;;;2.60;;
17382;SDS011;8809;51.892;8.384;2022-11-22T02:58:09;3.75;;;2.90;;
17382;SDS011;8809;51.892;8.384;2022-11-22T03:00:41;3.53;;;2.63;;
17382;SDS011;8809;51.892;8.384;2022-11-22T03:03:14;4.55;;;2.92;;
17382;SDS011;8809;51.892;8.384;2022-11-22T03:05:41;4.10;;;2.67;;
17382;SDS011;8809;51.892;8.384;2022-11-22T03:08:09;2.63;;;2.42;;
17382;SDS011;8809;51.892;8.384;2022-11-22T03:10:36;3.63;;;2.70;;
17382;SDS011;8809;51.892;8.384;2022-11-22T03:13:02;3.28;;;2.60;;
17382;SDS011;8809;51.892;8.384;2022-11-22T03:15:29;2.72;;;2.42;;
17382;SDS011;8809;51.892;8.384;2022-11-22T03:17:58;2.35;;;2.13;;
17382;SDS011;8809;51.892;8.384;2022-11-22T03:20:25;2.67;;;2.38;;
17382;SDS011;8809;51.892;8.384;2022-11-22T03:22:52;4.57;;;3.10;;
17382;SDS011;8809;51.892;8.384;2022-11-22T03:25:21;2.78;;;2.33;;
17382;SDS011;8809;51.892;8.384;2022-11-22T03:28:38;2.63;;;2.10;;
17382;SDS011;8809;51.892;8.384;2022-11-22T03:31:05;2.72;;;2.08;;
17382;SDS011;8809;51.892;8.384;2022-11-22T03:33:34;2.90;;;2.22;;
17382;SDS011;8809;51.892;8.384;2022-11-22T03:36:01;2.65;;;2.10;;
17382;SDS011;8809;51.892;8.384;2022-11-22T03:38:29;2.42;;;2.22;;
17382;SDS011;8809;51.892;8.384;2022-11-22T03:40:56;2.22;;;1.98;;
17382;SDS011;8809;51.892;8.384;2022-11-22T03:43:23;2.47;;;2.28;;
17382;SDS011;8809;51.892;8.384;2022-11-22T03:45:52;2.58;;;1.95;;
17382;SDS011;8809;51.892;8.384;2022-11-22T03:48:37;2.58;;;2.10;;
17382;SDS011;8809;51.892;8.384;2022-11-22T03:51:04;2.30;;;2.05;;
17382;SDS011;8809;51.892;8.384;2022-11-22T03:53:32;3.85;;;2.75;;
17382;SDS011;8809;51.892;8.384;2022-11-22T03:55:59;2.83;;;2.10;;
17382;SDS011;8809;51.892;8.384;2022-11-22T03:58:26;2.53;;;1.85;;
17382;SDS011;8809;51.892;8.384;2022-11-22T04:00:53;1.92;;;1.80;;
17382;SDS011;8809;51.892;8.384;2022-11-22T04:03:21;2.28;;;1.77;;
17382;SDS011;8809;51.892;8.384;2022-11-22T04:05:49;3.05;;;1.85;;
17382;SDS011;8809;51.892;8.384;2022-11-22T04:08:16;2.22;;;2.03;;
17382;SDS011;8809;51.892;8.384;2022-11-22T04:10:43;2.28;;;1.83;;
17382;SDS011;8809;51.892;8.384;2022-11-22T04:13:10;1.90;;;1.70;;
17382;SDS011;8809;51.892;8.384;2022-11-22T04:15:37;1.50;;;1.40;;
17382;SDS011;8809;51.892;8.384;2022-11-22T04:18:03;2.47;;;2.25;;
17382;SDS011;8809;51.892;8.384;2022-11-22T04:20:30;1.98;;;1.80;;
17382;SDS011;8809;51.892;8.384;2022-11-22T04:23:18;1.80;;;1.70;;
17382;SDS011;8809;51.892;8.384;2022-11-22T04:25:51;1.98;;;1.70;;
17382;SDS011;8809;51.892;8.384;2022-11-22T04:28:19;2.83;;;1.92;;
17382;SDS011;8809;51.892;8.384;2022-11-22T04:30:47;1.73;;;1.63;;
17382;SDS011;8809;51.892;8.384;2022-11-22T04:33:33;2.28;;;1.90;;
17382;SDS011;8809;51.892;8.384;2022-11-22T04:36:00;1.98;;;1.77;;
17382;SDS011;8809;51.892;8.384;2022-11-22T04:38:28;2.35;;;2.00;;
17382;SDS011;8809;51.892;8.384;2022-11-22T04:40:55;2.72;;;2.20;;
17382;SDS011;8809;51.892;8.384;2022-11-22T04:43:23;2.00;;;1.80;;
17382;SDS011;8809;51.892;8.384;2022-11-22T04:46:08;2.72;;;2.13;;
17382;SDS011;8809;51.892;8.384;2022-11-22T04:48:36;2.40;;;2.20;;
17382;SDS011;8809;51.892;8.384;2022-11-22T04:51:04;2.40;;;2.20;;
17382;SDS011;8809;51.892;8.384;2022-11-22T04:53:50;2.58;;;2.38;;
17382;SDS011;8809;51.892;8.384;2022-11-22T04:56:18;2.05;;;1.90;;
17382;SDS011;8809;51.892;8.384;2022-11-22T04:58:45;2.10;;;1.90;;
17382;SDS011;8809;51.892;8.384;2022-11-22T05:01:15;3.00;;;2.10;;
17382;SDS011;8809;51.892;8.384;2022-11-22T05:03:42;2.10;;;1.63;;
17382;SDS011;8809;51.892;8.384;2022-11-22T05:06:09;1.70;;;1.60;;
17382;SDS011;8809;51.892;8.384;2022-11-22T05:08:39;1.70;;;1.60;;
17382;SDS011;8809;51.892;8.384;2022-11-22T05:11:07;1.70;;;1.58;;
17382;SDS011;8809;51.892;8.384;2022-11-22T05:13:35;1.55;;;1.30;;
17382;SDS011;8809;51.892;8.384;2022-11-22T05:16:04;1.25;;;1.15;;
17382;SDS011;8809;51.892;8.384;2022-11-22T05:18:32;1.40;;;1.30;;
17382;SDS011;8809;51.892;8.384;2022-11-22T05:21:02;1.88;;;1.50;;
17382;SDS011;8809;51.892;8.384;2022-11-22T05:23:30;1.00;;;1.00;;
17382;SDS011;8809;51.892;8.384;2022-11-22T05:26:16;1.35;;;1.25;;
17382;SDS011;8809;51.892;8.384;2022-11-22T05:28:43;1.30;;;1.20;;
17382;SDS011;8809;51.892;8.384;2022-11-22T05:31:10;1.33;;;1.23;;
17382;SDS011;8809;51.892;8.384;2022-11-22T05:33:39;1.30;;;1.20;;
17382;SDS011;8809;51.892;8.384;2022-11-22T05:36:08;1.15;;;1.13;;
17382;SDS011;8809;51.892;8.384;2022-11-22T05:38:37;1.20;;;1.10;;
17382;SDS011;8809;51.892;8.384;2022-11-22T05:41:17;1.20;;;1.10;;
17382;SDS011;8809;51.892;8.384;2022-11-22T05:43:52;1.23;;;1.13;;
17382;SDS011;8809;51.892;8.384;2022-11-22T05:46:22;1.30;;;1.20;;
17382;SDS011;8809;51.892;8.384;2022-11-22T05:49:09;1.17;;;1.10;;
17382;SDS011;8809;51.892;8.384;2022-11-22T05:51:36;1.10;;;1.10;;
17382;SDS011;8809;51.892;8.384;2022-11-22T05:54:03;1.40;;;1.30;;
17382;SDS011;8809;51.892;8.384;2022-11-22T05:56:31;1.45;;;1.20;;
17382;SDS011;8809;51.892;8.384;2022-11-22T05:58:58;1.17;;;1.08;;
17382;SDS011;8809;51.892;8.384;2022-11-22T06:01:25;1.30;;;1.20;;
17382;SDS011;8809;51.892;8.384;2022-11-22T06:03:53;1.00;;;1.00;;
17382;SDS011;8809;51.892;8.384;2022-11-22T06:06:20;1.40;;;1.30;;
17382;SDS011;8809;51.892;8.384;2022-11-22T06:08:48;1.33;;;1.23;;
17382;SDS011;8809;51.892;8.384;2022-11-22T06:11:16;1.30;;;1.20;;
17382;SDS011;8809;51.892;8.384;2022-11-22T06:13:47;1.20;;;1.10;;
17382;SDS011;8809;51.892;8.384;2022-11-22T06:16:15;1.35;;;1.25;;
17382;SDS011;8809;51.892;8.384;2022-11-22T06:18:43;1.20;;;1.10;;
17382;SDS011;8809;51.892;8.384;2022-11-22T06:21:11;1.30;;;1.20;;
17382;SDS011;8809;51.892;8.384;2022-11-22T06:23:39;1.30;;;1.20;;
17382;SDS011;8809;51.892;8.384;2022-11-22T06:26:06;1.27;;;1.17;;
17382;SDS011;8809;51.892;8.384;2022-11-22T06:28:36;1.48;;;1.38;;
17382;SDS011;8809;51.892;8.384;2022-11-22T06:31:10;1.27;;;1.17;;
17382;SDS011;8809;51.892;8.384;2022-11-22T06:33:49;1.67;;;1.58;;
17382;SDS011;8809;51.892;8.384;2022-11-22T06:36:26;1.40;;;1.30;;
17382;SDS011;8809;51.892;8.384;2022-11-22T06:39:00;1.60;;;1.45;;
17382;SDS011;8809;51.892;8.384;2022-11-22T06:41:30;1.50;;;1.40;;
17382;SDS011;8809;51.892;8.384;2022-11-22T06:43:58;1.70;;;1.60;;
17382;SDS011;8809;51.892;8.384;2022-11-22T06:46:30;1.40;;;1.30;;
17382;SDS011;8809;51.892;8.384;2022-11-22T06:48:57;2.47;;;2.03;;
17382;SDS011;8809;51.892;8.384;2022-11-22T06:51:25;1.70;;;1.60;;
17382;SDS011;8809;51.892;8.384;2022-11-22T06:53:54;1.70;;;1.60;;
17382;SDS011;8809;51.892;8.384;2022-11-22T06:56:22;2.17;;;1.98;;
17382;SDS011;8809;51.892;8.384;2022-11-22T06:58:51;1.88;;;1.45;;
17382;SDS011;8809;51.892;8.384;2022-11-22T07:01:19;1.95;;;1.55;;
17382;SDS011;8809;51.892;8.384;2022-11-22T07:03:49;1.58;;;1.48;;
17382;SDS011;8809;51.892;8.384;2022-11-22T07:06:20;1.40;;;1.30;;
17382;SDS011;8809;51.892;8.384;2022-11-22T07:08:48;1.73;;;1.63;;
17382;SDS011;8809;51.892;8.384;2022-11-22T07:11:16;1.60;;;1.50;;
17382;SDS011;8809;51.892;8.384;2022-11-22T07:13:44;1.73;;;1.55;;
17382;SDS011;8809;51.892;8.384;2022-11-22T07:16:13;2.25;;;1.98;;
17382;SDS011;8809;51.892;8.384;2022-11-22T07:18:43;2.15;;;1.95;;
17382;SDS011;8809;51.892;8.384;2022-11-22T07:21:12;2.20;;;2.00;;
17382;SDS011;8809;51.892;8.384;2022-11-22T07:23:42;2.03;;;1.83;;
17382;SDS011;8809;51.892;8.384;2022-11-22T07:26:10;2.33;;;1.90;;
17382;SDS011;8809;51.892;8.384;2022-11-22T07:28:39;2.30;;;2.10;;
17382;SDS011;8809;51.892;8.384;2022-11-22T07:31:07;2.00;;;1.85;;
17382;SDS011;8809;51.892;8.384;2022-11-22T07:33:36;1.98;;;1.77;;
17382;SDS011;8809;51.892;8.384;2022-11-22T07:36:04;1.90;;;1.80;;
17382;SDS011;8809;51.892;8.384;2022-11-22T07:38:33;2.00;;;1.80;;
17382;SDS011;8809;51.892;8.384;2022-11-22T07:41:01;2.65;;;2.10;;
17382;SDS011;8809;51.892;8.384;2022-11-22T07:43:29;2.35;;;1.95;;
17382;SDS011;8809;51.892;8.384;2022-11-22T07:45:57;2.35;;;1.92;;
17382;SDS011;8809;51.892;8.384;2022-11-22T07:48:29;1.67;;;1.58;;
17382;SDS011;8809;51.892;8.384;2022-11-22T07:51:04;2.33;;;2.13;;
17382;SDS011;8809;51.892;8.384;2022-11-22T07:53:33;1.60;;;1.50;;
17382;SDS011;8809;51.892;8.384;2022-11-22T07:56:01;2.13;;;1.92;;
17382;SDS011;8809;51.892;8.384;2022-11-22T07:58:28;2.08;;;1.88;;
17382;SDS011;8809;51.892;8.384;2022-11-22T08:00:55;1.98;;;1.83;;
17382;SDS011;8809;51.892;8.384;2022-11-22T08:03:23;2.38;;;2.17;;
17382;SDS011;8809;51.892;8.384;2022-11-22T08:05:50;2.42;;;1.95;;
17382;SDS011;8809;51.892;8.384;2022-11-22T08:08:24;4.07;;;2.20;;
17382;SDS011;8809;51.892;8.384;2022-11-22T08:10:52;3.53;;;2.10;;
17382;SDS011;8809;51.892;8.384;2022-11-22T08:13:20;2.58;;;2.30;;
17382;SDS011;8809;51.892;8.384;2022-11-22T08:15:48;2.85;;;2.50;;
17382;SDS011;8809;51.892;8.384;2022-11-22T08:18:20;2.95;;;2.45;;
17382;SDS011;8809;51.892;8.384;2022-11-22T08:20:47;2.42;;;2.22;;
17382;SDS011;8809;51.892;8.384;2022-11-22T08:23:14;3.28;;;2.85;;
17382;SDS011;8809;51.892;8.384;2022-11-22T08:25:41;6.50;;;3.05;;
17382;SDS011;8809;51.892;8.384;2022-11-22T08:28:10;4.90;;;3.97;;
17382;SDS011;8809;51.892;8.384;2022-11-22T08:30:37;4.32;;;2.70;;
17382;SDS011;8809;51.892;8.384;2022-11-22T08:33:04;5.22;;;2.90;;
17382;SDS011;8809;51.892;8.384;2022-11-22T08:35:32;3.05;;;2.47;;
17382;SDS011;8809;51.892;8.384;2022-11-22T08:38:00;3.85;;;2.67;;
17382;SDS011;8809;51.892;8.384;2022-11-22T08:40:33;3.92;;;2.60;;
17382;SDS011;8809;51.892;8.384;2022-11-22T08:43:17;3.33;;;2.53;;
17382;SDS011;8809;51.892;8.384;2022-11-22T08:45:45;2.13;;;1.88;;
17382;SDS011;8809;51.892;8.384;2022-11-22T08:48:17;3.80;;;2.10;;
17382;SDS011;8809;51.892;8.384;2022-11-22T08:50:48;4.18;;;2.42;;
17382;SDS011;8809;51.892;8.384;2022-11-22T08:53:16;3.35;;;2.08;;
17382;SDS011;8809;51.892;8.384;2022-11-22T08:55:43;3.65;;;2.00;;
17382;SDS011;8809;51.892;8.384;2022-11-22T08:58:10;5.50;;;3.05;;
17382;SDS011;8809;51.892;8.384;2022-11-22T09:00:38;4.65;;;2.50;;
17382;SDS011;8809;51.892;8.384;2022-11-22T09:03:05;3.55;;;2.20;;
17382;SDS011;8809;51.892;8.384;2022-11-22T09:05:35;6.13;;;2.35;;
17382;SDS011;8809;51.892;8.384;2022-11-22T09:08:02;5.65;;;2.40;;
17382;SDS011;8809;51.892;8.384;2022-11-22T09:10:29;4.75;;;2.90;;
17382;SDS011;8809;51.892;8.384;2022-11-22T09:12:57;9.05;;;3.00;;
17382;SDS011;8809;51.892;8.384;2022-11-22T09:15:24;4.78;;;2.40;;
17382;SDS011;8809;51.892;8.384;2022-11-22T09:17:58;6.60;;;2.67;;
17382;SDS011;8809;51.892;8.384;2022-11-22T09:20:25;5.65;;;2.33;;
17382;SDS011;8809;51.892;8.384;2022-11-22T09:22:52;5.85;;;2.60;;
17382;SDS011;8809;51.892;8.384;2022-11-22T09:25:19;11.63;;;3.10;;
17382;SDS011;8809;51.892;8.384;2022-11-22T09:27:49;7.72;;;3.35;;
17382;SDS011;8809;51.892;8.384;2022-11-22T09:30:26;5.55;;;2.90;;
17382;SDS011;8809;51.892;8.384;2022-11-22T09:32:54;9.00;;;3.03;;
17382;SDS011;8809;51.892;8.384;2022-11-22T09:35:21;4.97;;;2.35;;
17382;SDS011;8809;51.892;8.384;2022-11-22T09:37:48;7.60;;;2.33;;
17382;SDS011;8809;51.892;8.384;2022-11-22T09:40:15;5.40;;;2.40;;
17382;SDS011;8809;51.892;8.384;2022-11-22T09:45:43;6.85;;;2.65;;
17382;SDS011;8809;51.892;8.384;2022-11-22T09:48:26;4.50;;;1.83;;
17382;SDS011;8809;51.892;8.384;2022-11-22T09:51:04;7.55;;;2.53;;
17382;SDS011;8809;51.892;8.384;2022-11-22T09:53:35;8.98;;;2.72;;
17382;SDS011;8809;51.892;8.384;2022-11-22T09:56:08;5.53;;;2.47;;
17382;SDS011;8809;51.892;8.384;2022-11-22T09:58:39;5.28;;;2.00;;
17382;SDS011;8809;51.892;8.384;2022-11-22T10:01:14;5.20;;;1.80;;
17382;SDS011;8809;51.892;8.384;2022-11-22T10:03:47;9.88;;;2.25;;
17382;SDS011;8809;51.892;8.384;2022-11-22T10:06:20;6.43;;;2.03;;
17382;SDS011;8809;51.892;8.384;2022-11-22T10:08:55;5.93;;;2.05;;
17382;SDS011;8809;51.892;8.384;2022-11-22T10:11:31;4.45;;;1.60;;
17382;SDS011;8809;51.892;8.384;2022-11-22T10:14:04;5.05;;;1.80;;
17382;SDS011;8809;51.892;8.384;2022-11-22T10:16:40;3.80;;;1.90;;
17382;SDS011;8809;51.892;8.384;2022-11-22T10:19:15;5.55;;;1.80;;
17382;SDS011;8809;51.892;8.384;2022-11-22T10:21:46;4.85;;;2.20;;
17382;SDS011;8809;51.892;8.384;2022-11-22T10:24:14;6.13;;;2.00;;
17382;SDS011;8809;51.892;8.384;2022-11-22T10:26:44;5.47;;;1.63;;
17382;SDS011;8809;51.892;8.384;2022-11-22T10:29:16;5.47;;;1.75;;
17382;SDS011;8809;51.892;8.384;2022-11-22T10:31:53;6.68;;;1.75;;
17382;SDS011;8809;51.892;8.384;2022-11-22T10:34:32;8.45;;;2.13;;
17382;SDS011;8809;51.892;8.384;2022-11-22T10:37:12;6.47;;;1.45;;
17382;SDS011;8809;51.892;8.384;2022-11-22T10:40:07;6.32;;;1.60;;
17382;SDS011;8809;51.892;8.384;2022-11-22T10:42:50;7.22;;;1.52;;
17382;SDS011;8809;51.892;8.384;2022-11-22T10:45:32;6.00;;;1.75;;
17382;SDS011;8809;51.892;8.384;2022-11-22T10:48:07;5.30;;;1.60;;
17382;SDS011;8809;51.892;8.384;2022-11-22T10:50:55;5.65;;;1.80;;
17382;SDS011;8809;51.892;8.384;2022-11-22T10:53:35;5.20;;;2.00;;
17382;SDS011;8809;51.892;8.384;2022-11-22T10:56:12;4.28;;;1.73;;
17382;SDS011;8809;51.892;8.384;2022-11-22T10:58:50;3.63;;;1.60;;
17382;SDS011;8809;51.892;8.384;2022-11-22T11:01:28;5.20;;;1.77;;
17382;SDS011;8809;51.892;8.384;2022-11-22T11:04:04;4.38;;;1.48;;
17382;SDS011;8809;51.892;8.384;2022-11-22T11:06:37;6.90;;;1.50;;
17382;SDS011;8809;51.892;8.384;2022-11-22T11:09:09;4.38;;;1.20;;
17382;SDS011;8809;51.892;8.384;2022-11-22T11:11:43;4.65;;;1.70;;
17382;SDS011;8809;51.892;8.384;2022-11-22T11:14:17;3.63;;;1.63;;
17382;SDS011;8809;51.892;8.384;2022-11-22T11:16:51;6.03;;;1.52;;
17382;SDS011;8809;51.892;8.384;2022-11-22T11:19:19;3.45;;;1.40;;
17382;SDS011;8809;51.892;8.384;2022-11-22T11:21:51;4.75;;;1.73;;
17382;SDS011;8809;51.892;8.384;2022-11-22T11:24:26;6.35;;;1.60;;
17382;SDS011;8809;51.892;8.384;2022-11-22T11:26:54;8.35;;;1.70;;
17382;SDS011;8809;51.892;8.384;2022-11-22T11:32:27;5.53;;;1.35;;
17382;SDS011;8809;51.892;8.384;2022-11-22T11:35:15;3.03;;;1.27;;
17382;SDS011;8809;51.892;8.384;2022-11-22T11:37:44;2.92;;;1.30;;
17382;SDS011;8809;51.892;8.384;2022-11-22T11:40:24;3.55;;;1.40;;
17382;SDS011;8809;51.892;8.384;2022-11-22T11:45:42;7.13;;;1.63;;
17382;SDS011;8809;51.892;8.384;2022-11-22T11:48:23;4.75;;;1.42;;
17382;SDS011;8809;51.892;8.384;2022-11-22T11:50:55;4.38;;;1.40;;
17382;SDS011;8809;51.892;8.384;2022-11-22T11:53:39;5.13;;;1.40;;
17382;SDS011;8809;51.892;8.384;2022-11-22T11:56:18;2.88;;;1.17;;
17382;SDS011;8809;51.892;8.384;2022-11-22T11:59:02;3.33;;;1.30;;
17382;SDS011;8809;51.892;8.384;2022-11-22T12:01:33;7.75;;;1.70;;
17382;SDS011;8809;51.892;8.384;2022-11-22T12:04:02;4.57;;;1.13;;
17382;SDS011;8809;51.892;8.384;2022-11-22T12:06:36;3.67;;;1.38;;
17382;SDS011;8809;51.892;8.384;2022-11-22T12:09:28;3.13;;;1.17;;
17382;SDS011;8809;51.892;8.384;2022-11-22T12:14:56;5.07;;;1.42;;
17382;SDS011;8809;51.892;8.384;2022-11-22T12:17:30;5.18;;;1.63;;
17382;SDS011;8809;51.892;8.384;2022-11-22T12:20:13;3.10;;;1.20;;
17382;SDS011;8809;51.892;8.384;2022-11-22T12:22:45;2.08;;;1.13;;
17382;SDS011;8809;51.892;8.384;2022-11-22T12:25:30;5.13;;;1.33;;
17382;SDS011;8809;51.892;8.384;2022-11-22T12:28:02;4.32;;;1.08;;
17382;SDS011;8809;51.892;8.384;2022-11-22T12:30:38;4.38;;;1.65;;
17382;SDS011;8809;51.892;8.384;2022-11-22T12:33:09;6.50;;;1.30;;
17382;SDS011;8809;51.892;8.384;2022-11-22T12:35:43;2.72;;;1.30;;
17382;SDS011;8809;51.892;8.384;2022-11-22T12:38:12;3.00;;;1.35;;
17382;SDS011;8809;51.892;8.384;2022-11-22T12:40:44;3.25;;;1.23;;
17382;SDS011;8809;51.892;8.384;2022-11-22T12:43:16;3.67;;;1.20;;
17382;SDS011;8809;51.892;8.384;2022-11-22T12:45:48;9.15;;;1.75;;
17382;SDS011;8809;51.892;8.384;2022-11-22T12:48:19;6.90;;;1.67;;
17382;SDS011;8809;51.892;8.384;2022-11-22T12:50:49;4.78;;;1.45;;
17382;SDS011;8809;51.892;8.384;2022-11-22T12:53:21;5.13;;;1.15;;
17382;SDS011;8809;51.892;8.384;2022-11-22T12:55:56;3.63;;;1.50;;
17382;SDS011;8809;51.892;8.384;2022-11-22T12:58:31;3.17;;;1.10;;
17382;SDS011;8809;51.892;8.384;2022-11-22T13:01:08;4.47;;;1.38;;
17382;SDS011;8809;51.892;8.384;2022-11-22T13:03:42;3.20;;;1.10;;
17382;SDS011;8809;51.892;8.384;2022-11-22T13:06:15;2.40;;;1.02;;
17382;SDS011;8809;51.892;8.384;2022-11-22T13:08:50;3.40;;;1.20;;
17382;SDS011;8809;51.892;8.384;2022-11-22T13:11:24;2.03;;;0.98;;
17382;SDS011;8809;51.892;8.384;2022-11-22T13:13:57;4.75;;;1.35;;
17382;SDS011;8809;51.892;8.384;2022-11-22T13:16:28;4.28;;;1.33;;
17382;SDS011;8809;51.892;8.384;2022-11-22T13:18:56;2.78;;;0.90;;
17382;SDS011;8809;51.892;8.384;2022-11-22T13:21:27;2.58;;;1.05;;
17382;SDS011;8809;51.892;8.384;2022-11-22T13:24:15;2.08;;;0.93;;
17382;SDS011;8809;51.892;8.384;2022-11-22T13:26:57;3.47;;;1.48;;
17382;SDS011;8809;51.892;8.384;2022-11-22T13:29:33;3.17;;;1.20;;
17382;SDS011;8809;51.892;8.384;2022-11-22T13:32:02;4.70;;;1.20;;
17382;SDS011;8809;51.892;8.384;2022-11-22T13:34:32;4.15;;;1.25;;
17382;SDS011;8809;51.892;8.384;2022-11-22T13:37:03;4.80;;;1.30;;
17382;SDS011;8809;51.892;8.384;2022-11-22T13:39:34;3.63;;;1.40;;
17382;SDS011;8809;51.892;8.384;2022-11-22T13:42:10;4.32;;;1.20;;
17382;SDS011;8809;51.892;8.384;2022-11-22T13:44:49;3.28;;;1.17;;
17382;SDS011;8809;51.892;8.384;2022-11-22T13:47:34;2.97;;;1.27;;
17382;SDS011;8809;51.892;8.384;2022-11-22T13:53:23;2.88;;;0.90;;
17382;SDS011;8809;51.892;8.384;2022-11-22T13:55:56;3.70;;;1.63;;
17382;SDS011;8809;51.892;8.384;2022-11-22T13:58:48;2.90;;;1.42;;
17382;SDS011;8809;51.892;8.384;2022-11-22T14:01:29;2.33;;;0.90;;
17382;SDS011;8809;51.892;8.384;2022-11-22T14:04:25;2.50;;;0.93;;
17382;SDS011;8809;51.892;8.384;2022-11-22T14:06:56;3.08;;;0.93;;
17382;SDS011;8809;51.892;8.384;2022-11-22T14:09:32;2.53;;;1.13;;
17382;SDS011;8809;51.892;8.384;2022-11-22T14:12:21;3.25;;;1.20;;
17382;SDS011;8809;51.892;8.384;2022-11-22T14:18:09;2.13;;;1.33;;
17382;SDS011;8809;51.892;8.384;2022-11-22T14:20:54;4.30;;;1.17;;
17382;SDS011;8809;51.892;8.384;2022-11-22T14:23:28;1.92;;;1.02;;
17382;SDS011;8809;51.892;8.384;2022-11-22T14:26:17;2.03;;;1.08;;
17382;SDS011;8809;51.892;8.384;2022-11-22T14:29:13;1.73;;;0.98;;
17382;SDS011;8809;51.892;8.384;2022-11-22T14:31:54;2.95;;;1.00;;
17382;SDS011;8809;51.892;8.384;2022-11-22T14:34:26;1.33;;;0.90;;
17382;SDS011;8809;51.892;8.384;2022-11-22T14:40:01;4.78;;;1.20;;
17382;SDS011;8809;51.892;8.384;2022-11-22T14:42:46;1.67;;;0.90;;
17382;SDS011;8809;51.892;8.384;2022-11-22T14:45:24;1.15;;;0.80;;
17382;SDS011;8809;51.892;8.384;2022-11-22T14:48:02;1.73;;;0.80;;
17382;SDS011;8809;51.892;8.384;2022-11-22T14:50:37;1.23;;;0.90;;
17382;SDS011;8809;51.892;8.384;2022-11-22T14:53:10;1.30;;;0.90;;
17382;SDS011;8809;51.892;8.384;2022-11-22T14:55:46;1.52;;;1.02;;
17382;SDS011;8809;51.892;8.384;2022-11-22T14:58:19;3.28;;;1.15;;
17382;SDS011;8809;51.892;8.384;2022-11-22T15:00:57;2.88;;;1.10;;
17382;SDS011;8809;51.892;8.384;2022-11-22T15:06:35;2.28;;;1.20;;
17382;SDS011;8809;51.892;8.384;2022-11-22T15:09:25;2.97;;;1.00;;
17382;SDS011;8809;51.892;8.384;2022-11-22T15:12:12;2.53;;;0.90;;
17382;SDS011;8809;51.892;8.384;2022-11-22T15:17:46;2.67;;;1.65;;
17382;SDS011;8809;51.892;8.384;2022-11-22T15:23:04;3.22;;;1.33;;
17382;SDS011;8809;51.892;8.384;2022-11-22T15:25:38;2.65;;;1.35;;
17382;SDS011;8809;51.892;8.384;2022-11-22T15:28:05;2.05;;;1.20;;
17382;SDS011;8809;51.892;8.384;2022-11-22T15:30:36;1.40;;;1.10;;
17382;SDS011;8809;51.892;8.384;2022-11-22T15:33:05;2.15;;;1.00;;
17382;SDS011;8809;51.892;8.384;2022-11-22T15:35:46;1.92;;;1.13;;
17382;SDS011;8809;51.892;8.384;2022-11-22T15:38:22;3.25;;;1.27;;
17382;SDS011;8809;51.892;8.384;2022-11-22T15:40:49;1.38;;;1.00;;
17382;SDS011;8809;51.892;8.384;2022-11-22T15:43:18;1.15;;;1.05;;
17382;SDS011;8809;51.892;8.384;2022-11-22T15:45:47;1.38;;;1.00;;
17382;SDS011;8809;51.892;8.384;2022-11-22T15:48:16;1.98;;;1.10;;
17382;SDS011;8809;51.892;8.384;2022-11-22T15:51:18;2.15;;;1.48;;
17382;SDS011;8809;51.892;8.384;2022-11-22T15:56:44;3.05;;;1.70;;
17382;SDS011;8809;51.892;8.384;2022-11-22T15:59:22;3.13;;;1.45;;
17382;SDS011;8809;51.892;8.384;2022-11-22T16:01:54;2.00;;;1.50;;